Time;durP1;ratioP1;P1;durP2;ratioP2;P2;SDS_P1;SDS_P2;PMS_P1;PMS_P2;Temp;Humidity;BMP_temperature;BMP_pressure;BME280_temperature;BME280_humidity;BME280_pressure;Samples;Min_cycle;Max_cycle;Signal;HPM_P1;HPM_P2
2022/12/18 00:01:48;;;;;;;77.45;27.20;;;;;;;-5.84;100.00;102516.41;4969674;28;20030;-78
2022/12/18 00:04:25;;;;;;;77.47;26.80;;;;;;;-5.74;100.00;102529.94;4989446;28;20054;-78
2022/12/18 00:06:50;;;;;;;84.18;29.05;;;;;;;-5.71;100.00;102529.06;4992859;28;20035;-78
2022/12/18 00:09:16;;;;;;;73.50;26.20;;;;;;;-5.80;100.00;102536.94;4998076;28;20030;-79
2022/12/18 00:11:42;;;;;;;68.13;25.88;;;;;;;-5.82;100.00;102525.34;4993617;28;20026;-78
2022/12/18 00:14:10;;;;;;;81.82;25.63;;;;;;;-5.69;100.00;102529.09;4994595;28;20038;-77
2022/12/18 00:16:36;;;;;;;71.30;25.92;;;;;;;-5.72;100.00;102519.28;4975774;28;20050;-78
2022/12/18 00:19:03;;;;;;;80.22;25.83;;;;;;;-5.76;100.00;102514.75;4981306;28;20026;-77
2022/12/18 00:21:30;;;;;;;65.75;24.83;;;;;;;-5.80;100.00;102515.59;4988612;28;20836;-77
2022/12/18 00:23:56;;;;;;;68.25;24.50;;;;;;;-5.77;100.00;102518.28;4994047;28;20482;-77
2022/12/18 00:26:24;;;;;;;63.63;24.08;;;;;;;-5.67;100.00;102525.59;4980430;28;20129;-77
2022/12/18 00:28:49;;;;;;;74.63;24.33;;;;;;;-5.70;100.00;102521.97;4977071;28;20026;-77
2022/12/18 00:31:18;;;;;;;76.05;24.83;;;;;;;-5.76;100.00;102520.09;4994126;28;20036;-76
2022/12/18 00:33:44;;;;;;;69.75;23.83;;;;;;;-5.85;100.00;102517.28;4985136;28;20034;-77
2022/12/18 00:36:12;;;;;;;60.22;24.27;;;;;;;-5.84;100.00;102511.09;4989208;28;20046;-77
2022/12/18 00:38:39;;;;;;;67.90;24.80;;;;;;;-5.78;100.00;102517.41;4986202;28;20378;-77
2022/12/18 00:41:07;;;;;;;65.72;23.30;;;;;;;-5.86;100.00;102516.38;4996955;28;20034;-78
2022/12/18 00:43:34;;;;;;;76.15;24.02;;;;;;;-5.88;100.00;102512.81;4989087;28;20030;-78
2022/12/18 00:45:59;;;;;;;64.05;24.42;;;;;;;-5.85;100.00;102507.53;4979834;28;20065;-78
2022/12/18 00:48:25;;;;;;;69.25;23.90;;;;;;;-5.89;100.00;102512.78;4996777;28;20027;-78
2022/12/18 00:50:51;;;;;;;60.95;22.30;;;;;;;-5.87;100.00;102514.63;4981217;28;20517;-79
2022/12/18 00:53:17;;;;;;;63.33;23.73;;;;;;;-5.92;100.00;102509.22;4980602;28;20047;-78
2022/12/18 00:55:43;;;;;;;67.60;23.52;;;;;;;-5.81;100.00;102508.47;4983069;28;20030;-78
2022/12/18 00:58:10;;;;;;;51.22;21.02;;;;;;;-5.85;100.00;102498.59;4978644;28;20061;-78
2022/12/18 01:00:36;;;;;;;61.08;22.20;;;;;;;-5.98;100.00;102498.47;4980285;28;20034;-78
2022/12/18 01:03:02;;;;;;;60.28;21.48;;;;;;;-5.83;100.00;102495.09;4997775;28;20064;-78
2022/12/18 01:05:28;;;;;;;54.72;20.55;;;;;;;-5.85;100.00;102502.19;4980051;28;20038;-78
2022/12/18 01:07:53;;;;;;;54.30;21.58;;;;;;;-5.77;100.00;102518.28;4996816;28;20100;-78
2022/12/18 01:10:18;;;;;;;67.38;22.23;;;;;;;-5.85;100.00;102517.28;4965865;28;20466;-78
2022/12/18 01:12:44;;;;;;;57.17;21.33;;;;;;;-5.88;100.00;102520.81;4994454;28;20355;-78
2022/12/18 01:15:12;;;;;;;53.22;20.70;;;;;;;-5.91;100.00;102515.44;4987435;28;20030;-78
2022/12/18 01:17:37;;;;;;;68.43;21.10;;;;;;;-5.96;100.00;102512.69;4996738;28;20027;-78
2022/12/18 01:20:04;;;;;;;50.40;19.85;;;;;;;-5.93;100.00;102526.06;4995457;28;20475;-78
2022/12/18 01:22:30;;;;;;;55.50;21.92;;;;;;;-5.86;100.00;102527.06;4994784;28;20042;-77
2022/12/18 01:24:55;;;;;;;65.90;21.23;;;;;;;-5.89;100.00;102527.00;4978740;28;20030;-78
2022/12/18 01:27:20;;;;;;;53.50;20.00;;;;;;;-5.97;100.00;102518.94;4962002;28;20038;-78
2022/12/18 01:29:46;;;;;;;54.42;20.92;;;;;;;-5.96;100.00;102522.50;4996400;28;20120;-78
2022/12/18 01:32:11;;;;;;;55.00;20.58;;;;;;;-5.98;100.00;102524.25;4996518;28;20053;-78
2022/12/18 01:34:37;;;;;;;57.60;19.10;;;;;;;-6.06;100.00;102520.56;4995975;28;20057;-78
2022/12/18 01:37:04;;;;;;;57.00;19.45;;;;;;;-6.08;100.00;102528.53;4995913;28;20501;-78
2022/12/18 01:39:29;;;;;;;44.30;18.52;;;;;;;-6.07;100.00;102524.09;4997265;28;20042;-78
2022/12/18 01:42:03;;;;;;;51.45;18.98;;;;;;;-6.12;100.00;102527.56;4998574;28;20072;-78
2022/12/18 01:44:56;;;;;;;46.30;18.27;;;;;;;-6.11;100.00;102513.38;4994670;28;20122;-78
2022/12/18 01:47:30;;;;;;;51.65;18.55;;;;;;;-6.08;100.00;102519.59;4993777;28;20026;-78
2022/12/18 01:49:57;;;;;;;51.55;18.90;;;;;;;-6.15;100.00;102510.63;4983336;28;20541;-78
2022/12/18 01:52:25;;;;;;;65.35;19.55;;;;;;;-6.12;100.00;102510.66;4996301;28;20034;-78
2022/12/18 01:54:52;;;;;;;47.42;18.63;;;;;;;-6.14;100.00;102513.31;4985127;28;20043;-78
2022/12/18 01:57:18;;;;;;;54.03;17.80;;;;;;;-6.12;100.00;102511.56;4975928;28;20045;-78
2022/12/18 01:59:49;;;;;;;52.38;20.20;;;;;;;-6.18;100.00;102511.47;4986517;28;20026;-78
2022/12/18 02:02:16;;;;;;;43.50;17.70;;;;;;;-6.10;100.00;102504.50;4991300;28;20038;-78
2022/12/18 02:04:41;;;;;;;52.25;20.30;;;;;;;-6.07;100.00;102502.75;4995576;28;20462;-78
2022/12/18 02:07:24;;;;;;;53.97;18.80;;;;;;;-6.10;100.00;102503.59;4978803;28;20069;-78
2022/12/18 02:10:06;;;;;;;51.22;17.85;;;;;;;-6.19;100.00;102515.00;4990914;28;20030;-78
2022/12/18 02:12:47;;;;;;;52.85;18.35;;;;;;;-6.22;100.00;102509.63;4977719;28;20493;-78
2022/12/18 02:15:18;;;;;;;44.97;17.92;;;;;;;-6.21;100.00;102506.09;4987342;28;20100;-78
2022/12/18 02:17:50;;;;;;;62.58;19.77;;;;;;;-6.12;100.00;102513.34;4981840;28;20037;-78
2022/12/18 02:21:03;;;;;;;51.35;19.60;;;;;;;-6.14;100.00;102507.09;4996142;28;20161;-77
2022/12/18 02:23:52;;;;;;;41.97;17.85;;;;;;;-6.14;100.00;102512.41;4977112;28;20036;-78
2022/12/18 02:26:37;;;;;;;61.53;17.63;;;;;;;-6.21;100.00;102500.75;4991483;28;20077;-77
2022/12/18 02:29:16;;;;;;;51.88;18.30;;;;;;;-6.24;100.00;102500.72;5000388;28;20445;-77
2022/12/18 02:31:53;;;;;;;48.00;17.30;;;;;;;-6.22;100.00;102503.41;4977879;28;20066;-77
2022/12/18 02:34:23;;;;;;;44.03;16.77;;;;;;;-6.26;100.00;102499.78;4977328;28;20041;-77
2022/12/18 02:36:50;;;;;;;52.85;17.98;;;;;;;-6.21;100.00;102507.88;4975961;28;20042;-77
2022/12/18 02:39:16;;;;;;;46.35;18.05;;;;;;;-6.20;100.00;102502.53;4989170;28;20038;-77
2022/12/18 02:41:42;;;;;;;49.33;18.38;;;;;;;-6.25;100.00;102498.91;4993598;28;20505;-77
2022/12/18 02:44:11;;;;;;;45.70;18.05;;;;;;;-6.29;100.00;102503.28;4994925;28;20038;-78
2022/12/18 02:46:41;;;;;;;43.28;18.13;;;;;;;-6.35;100.00;102487.19;4975561;28;20081;-78
2022/12/18 02:49:29;;;;;;;44.72;18.17;;;;;;;-6.26;100.00;102502.47;4989213;28;20030;-78
2022/12/18 02:52:04;;;;;;;42.70;17.38;;;;;;;-6.31;100.00;102496.16;4972632;28;20138;-78
2022/12/18 02:55:04;;;;;;;45.20;18.15;;;;;;;-6.35;100.00;102495.19;4992086;28;20041;-78
2022/12/18 02:57:53;;;;;;;49.20;18.65;;;;;;;-6.35;100.00;102486.31;4974448;28;20448;-78
2022/12/18 03:00:28;;;;;;;42.10;17.08;;;;;;;-6.37;100.00;102482.72;4963311;28;20383;-78
2022/12/18 03:03:04;;;;;;;44.90;17.85;;;;;;;-6.33;100.00;102480.13;4976828;28;20031;-77
2022/12/18 03:05:38;;;;;;;51.42;18.50;;;;;;;-6.41;100.00;102480.84;4975916;28;20035;-77
2022/12/18 03:08:26;;;;;;;52.30;17.77;;;;;;;-6.39;100.00;102481.81;4994551;28;20401;-77
2022/12/18 03:11:01;;;;;;;49.50;18.73;;;;;;;-6.41;100.00;102488.84;4994536;28;20073;-77
2022/12/18 03:13:35;;;;;;;40.17;16.48;;;;;;;-6.44;100.00;102486.13;4993441;28;20062;-78
2022/12/18 03:16:04;;;;;;;41.00;16.90;;;;;;;-6.42;100.00;102474.66;4985775;28;20035;-77
2022/12/18 03:18:58;;;;;;;37.67;15.82;;;;;;;-6.43;100.00;102479.94;4985090;28;20038;-78
2022/12/18 03:21:38;;;;;;;51.97;18.27;;;;;;;-6.41;100.00;102468.44;4988144;28;20046;-78
2022/12/18 03:24:07;;;;;;;44.90;17.17;;;;;;;-6.41;100.00;102464.88;5010098;28;20134;-77
2022/12/18 03:26:35;;;;;;;41.63;17.17;;;;;;;-6.51;100.00;102459.41;4993533;28;20022;-78
2022/12/18 03:29:07;;;;;;;40.95;16.48;;;;;;;-6.55;100.00;102460.22;5009743;28;20041;-77
2022/12/18 03:31:32;;;;;;;41.63;15.85;;;;;;;-6.50;100.00;102471.84;5009005;28;20034;-77
2022/12/18 03:34:14;;;;;;;42.08;16.00;;;;;;;-6.54;100.00;102469.09;5006593;28;20211;-77
2022/12/18 03:36:40;;;;;;;44.30;15.20;;;;;;;-6.54;100.00;102467.34;4995954;28;20054;-77
2022/12/18 03:39:05;;;;;;;39.63;15.70;;;;;;;-6.59;100.00;102471.69;4995928;28;20054;-77
2022/12/18 03:41:49;;;;;;;34.13;14.43;;;;;;;-6.56;100.00;102477.09;4977166;28;20069;-77
2022/12/18 03:44:27;;;;;;;43.03;16.15;;;;;;;-6.57;100.00;102485.03;4987818;28;20501;-77
2022/12/18 03:46:59;;;;;;;43.60;16.48;;;;;;;-6.60;100.00;102480.53;4995518;28;20482;-77
2022/12/18 03:49:47;;;;;;;42.15;15.90;;;;;;;-6.60;100.00;102469.88;4994673;28;20038;-77
2022/12/18 03:52:26;;;;;;;38.30;14.95;;;;;;;-6.65;100.00;102459.16;4995322;28;20034;-77
2022/12/18 03:54:55;;;;;;;35.92;15.43;;;;;;;-6.60;100.00;102453.91;4996379;28;20061;-77
2022/12/18 03:57:23;;;;;;;38.85;16.67;;;;;;;-6.65;100.00;102460.94;4978740;28;20093;-77
2022/12/18 03:59:52;;;;;;;40.45;17.20;;;;;;;-6.53;100.00;102450.47;4986361;28;20026;-77
2022/12/18 04:02:19;;;;;;;47.38;16.08;;;;;;;-6.55;100.00;102444.22;4995132;28;20038;-77
2022/12/18 04:04:46;;;;;;;36.63;14.90;;;;;;;-6.59;100.00;102442.41;4992460;28;20042;-77
2022/12/18 04:07:13;;;;;;;40.00;15.60;;;;;;;-6.73;100.00;102434.16;4963582;28;20062;-77
2022/12/18 04:09:39;;;;;;;40.22;14.20;;;;;;;-6.61;100.00;102449.44;5006108;28;20478;-77
2022/12/18 04:12:05;;;;;;;35.53;14.55;;;;;;;-6.72;100.00;102443.94;4961642;28;20065;-77
2022/12/18 04:14:35;;;;;;;29.58;13.20;;;;;;;-6.66;100.00;102432.47;4992253;28;20039;-77
2022/12/18 04:17:01;;;;;;;31.33;12.98;;;;;;;-6.67;100.00;102428.03;4952691;28;20135;-77
2022/12/18 04:19:26;;;;;;;35.78;14.57;;;;;;;-6.78;100.00;102424.28;4977562;28;20047;-77
2022/12/18 04:21:55;;;;;;;39.28;14.63;;;;;;;-6.71;100.00;102436.84;4978237;28;20046;-77
2022/12/18 04:24:20;;;;;;;48.58;16.38;;;;;;;-6.73;100.00;102428.81;4994239;28;20442;-77
2022/12/18 04:26:45;;;;;;;25.95;11.40;;;;;;;-6.67;100.00;102425.38;4978957;28;20027;-77
2022/12/18 04:29:11;;;;;;;37.83;15.02;;;;;;;-6.66;100.00;102421.84;4979764;28;20146;-78
2022/12/18 04:31:36;;;;;;;38.08;15.32;;;;;;;-6.69;100.00;102430.69;4999376;28;20038;-78
2022/12/18 04:34:02;;;;;;;36.58;15.10;;;;;;;-6.70;100.00;102426.22;4972640;28;20038;-77
2022/12/18 04:36:27;;;;;;;30.13;13.15;;;;;;;-6.71;100.00;102415.53;4998398;28;20506;-77
2022/12/18 04:38:53;;;;;;;34.30;14.38;;;;;;;-6.74;100.00;102394.16;4997930;28;20038;-77
2022/12/18 04:41:18;;;;;;;39.88;14.60;;;;;;;-6.72;100.00;102400.41;4998251;28;20149;-78
2022/12/18 04:43:44;;;;;;;42.35;14.57;;;;;;;-6.67;100.00;102398.75;4996976;28;20043;-77
2022/12/18 04:46:09;;;;;;;39.90;14.88;;;;;;;-6.65;100.00;102397.88;4988475;28;20039;-77
2022/12/18 04:48:37;;;;;;;36.10;14.55;;;;;;;-6.59;100.00;102409.50;4991507;28;20470;-78
2022/12/18 04:51:04;;;;;;;33.88;13.32;;;;;;;-6.58;100.00;102412.19;4956672;28;20062;-78
2022/12/18 04:53:29;;;;;;;35.47;14.15;;;;;;;-6.58;100.00;102419.31;4980213;28;20085;-78
2022/12/18 04:56:10;;;;;;;45.35;14.95;;;;;;;-6.51;100.00;102423.84;4979663;28;20031;-77
2022/12/18 04:58:37;;;;;;;28.20;12.63;;;;;;;-6.59;100.00;102420.16;4977201;28;20023;-77
2022/12/18 05:01:03;;;;;;;33.35;13.40;;;;;;;-6.60;100.00;102426.38;4985810;28;20049;-78
2022/12/18 05:03:28;;;;;;;39.47;14.05;;;;;;;-6.60;100.00;102427.28;4974057;28;20438;-78
2022/12/18 05:05:54;;;;;;;40.40;14.80;;;;;;;-6.54;100.00;102435.38;4985255;28;20034;-78
2022/12/18 05:08:19;;;;;;;32.78;14.75;;;;;;;-6.61;100.00;102438.78;4991585;28;20030;-78
2022/12/18 05:10:45;;;;;;;33.38;14.98;;;;;;;-6.54;100.00;102450.44;4993990;28;20039;-77
2022/12/18 05:13:10;;;;;;;39.35;15.65;;;;;;;-6.60;100.00;102453.03;4994407;28;20490;-78
2022/12/18 05:15:36;;;;;;;32.53;15.30;;;;;;;-6.63;100.00;102466.28;4994714;28;20042;-78
2022/12/18 05:18:02;;;;;;;37.88;15.38;;;;;;;-6.66;100.00;102457.38;4997650;28;20070;-78
2022/12/18 05:20:28;;;;;;;34.83;14.93;;;;;;;-6.60;100.00;102458.34;4990734;28;20084;-78
2022/12/18 05:22:54;;;;;;;34.40;15.77;;;;;;;-6.63;100.00;102453.84;4973408;28;20031;-77
2022/12/18 05:25:20;;;;;;;38.75;16.50;;;;;;;-6.62;100.00;102457.41;4986985;28;20419;-77
2022/12/18 05:27:46;;;;;;;38.40;14.98;;;;;;;-6.57;100.00;102464.63;4974391;28;20039;-77
2022/12/18 05:30:12;;;;;;;35.97;13.98;;;;;;;-6.63;100.00;102460.94;4982953;28;20520;-77
2022/12/18 05:32:38;;;;;;;36.35;14.52;;;;;;;-6.65;100.00;102464.47;4998313;28;20039;-78
2022/12/18 05:35:05;;;;;;;33.08;14.52;;;;;;;-6.69;100.00;102462.63;4996442;28;20045;-78
2022/12/18 05:37:31;;;;;;;36.05;15.00;;;;;;;-6.72;100.00;102451.94;4995892;28;20050;-77
2022/12/18 05:39:56;;;;;;;36.67;15.15;;;;;;;-6.68;100.00;102451.09;4990107;28;20490;-77
2022/12/18 05:42:22;;;;;;;47.53;16.13;;;;;;;-6.68;100.00;102450.22;4975891;28;20037;-77
2022/12/18 05:44:47;;;;;;;30.42;13.32;;;;;;;-6.63;100.00;102455.63;4979534;28;20155;-78
2022/12/18 05:47:13;;;;;;;41.28;16.73;;;;;;;-6.65;100.00;102447.59;4997373;28;20034;-78
2022/12/18 05:49:38;;;;;;;33.17;14.90;;;;;;;-6.66;100.00;102437.81;4973754;28;20041;-77
2022/12/18 05:52:04;;;;;;;40.22;14.73;;;;;;;-6.63;100.00;102437.88;4976395;28;20049;-78
2022/12/18 05:54:30;;;;;;;35.20;15.18;;;;;;;-6.54;100.00;102443.38;4992959;28;20038;-77
2022/12/18 05:56:56;;;;;;;31.80;14.85;;;;;;;-6.54;100.00;102437.13;4990519;28;20046;-77
2022/12/18 05:59:21;;;;;;;38.17;14.90;;;;;;;-6.53;100.00;102429.16;4986874;28;20053;-77
2022/12/18 06:01:47;;;;;;;41.28;16.42;;;;;;;-6.44;100.00;102420.44;5002617;28;20441;-78
2022/12/18 06:04:12;;;;;;;31.52;15.35;;;;;;;-6.42;100.00;102412.47;4979383;28;20368;-78
2022/12/18 06:06:38;;;;;;;37.35;15.45;;;;;;;-6.36;100.00;102417.88;4978876;28;20042;-78
2022/12/18 06:09:08;;;;;;;32.03;14.23;;;;;;;-6.36;100.00;102409.88;4975177;28;20104;-78
2022/12/18 06:11:35;;;;;;;36.05;14.38;;;;;;;-6.29;100.00;102417.13;4995721;28;20042;-78
2022/12/18 06:14:01;;;;;;;40.75;15.98;;;;;;;-6.27;100.00;102415.38;4995769;28;20034;-77
2022/12/18 06:16:28;;;;;;;38.05;15.63;;;;;;;-6.45;100.00;102376.00;4988526;28;20058;-78
2022/12/18 06:19:00;;;;;;;34.95;13.73;;;;;;;-6.21;100.00;102411.94;4962911;28;20449;-78
2022/12/18 06:21:26;;;;;;;35.70;14.48;;;;;;;-6.15;100.00;102409.31;4980602;28;20043;-78
2022/12/18 06:23:51;;;;;;;38.53;15.63;;;;;;;-6.16;100.00;102416.44;4966642;28;20038;-78
2022/12/18 06:29:38;;;;;;;35.92;14.80;;;;;;;-6.02;100.00;102399.75;4995139;28;20478;-79
2022/12/18 06:32:04;;;;;;;35.70;14.35;;;;;;;-6.16;100.00;102399.56;4978008;28;20100;-78
2022/12/18 06:34:31;;;;;;;41.50;15.43;;;;;;;-6.04;100.00;102398.84;4990415;28;20070;-78
2022/12/18 06:36:56;;;;;;;32.78;14.82;;;;;;;-6.10;100.00;102400.53;4996549;28;20449;-78
2022/12/18 06:39:21;;;;;;;34.65;15.32;;;;;;;-6.14;100.00;102396.03;4995565;28;20085;-78
2022/12/18 06:41:47;;;;;;;43.92;14.55;;;;;;;-6.10;100.00;102402.28;4995909;28;20489;-79
2022/12/18 06:44:12;;;;;;;40.38;16.20;;;;;;;-6.13;100.00;102403.16;4998427;28;20115;-78
2022/12/18 06:46:38;;;;;;;36.58;15.38;;;;;;;-6.13;100.00;102389.84;4996675;28;20068;-78
2022/12/18 06:49:03;;;;;;;39.33;14.27;;;;;;;-6.10;100.00;102403.22;4995691;28;20057;-78
2022/12/18 06:51:29;;;;;;;28.27;14.05;;;;;;;-6.05;100.00;102402.38;4995769;28;20046;-78
2022/12/18 06:53:54;;;;;;;41.03;14.60;;;;;;;-6.07;100.00;102396.13;4993557;28;20038;-78
2022/12/18 06:56:20;;;;;;;42.67;14.90;;;;;;;-6.01;100.00;102401.56;4990709;28;20050;-78
2022/12/18 06:58:51;;;;;;;34.40;14.80;;;;;;;-6.04;100.00;102382.84;4970977;28;20092;-78
2022/12/18 07:01:16;;;;;;;31.52;14.18;;;;;;;-5.99;100.00;102398.00;4998857;28;20049;-78
2022/12/18 07:03:42;;;;;;;41.40;14.80;;;;;;;-5.95;100.00;102398.91;4963928;28;20047;-78
2022/12/18 07:06:14;;;;;;;36.15;14.40;;;;;;;-6.00;100.00;102400.66;4993364;28;20041;-78
2022/12/18 07:08:39;;;;;;;41.22;15.30;;;;;;;-5.88;100.00;102402.59;4998382;28;20031;-78
2022/12/18 07:11:05;;;;;;;34.50;13.68;;;;;;;-5.94;100.00;102395.38;4980481;28;20129;-77
2022/12/18 07:13:30;;;;;;;44.10;15.23;;;;;;;-5.94;100.00;102400.72;4967055;28;20038;-78
2022/12/18 07:16:03;;;;;;;30.15;13.43;;;;;;;-6.00;100.00;102398.00;4970081;28;20042;-78
2022/12/18 07:18:29;;;;;;;33.35;15.75;;;;;;;-5.98;100.00;102390.94;4995053;28;20074;-78
2022/12/18 07:20:54;;;;;;;34.65;14.35;;;;;;;-5.94;100.00;102395.38;4981323;28;20042;-77
2022/12/18 07:23:19;;;;;;;35.42;15.02;;;;;;;-5.96;100.00;102386.50;4997511;28;20061;-77
2022/12/18 07:25:47;;;;;;;39.88;14.95;;;;;;;-6.02;100.00;102389.97;4980367;28;20048;-77
2022/12/18 07:28:14;;;;;;;38.53;14.95;;;;;;;-6.06;100.00;102380.16;4980665;28;20030;-78
2022/12/18 07:30:40;;;;;;;35.58;15.45;;;;;;;-6.03;100.00;102381.94;4970999;28;20383;-78
2022/12/18 07:33:05;;;;;;;39.30;14.73;;;;;;;-5.99;100.00;102375.81;4964439;28;20045;-78
2022/12/18 07:35:32;;;;;;;35.22;14.93;;;;;;;-6.13;100.00;102357.84;4978623;28;20053;-77
2022/12/18 07:37:57;;;;;;;34.40;13.38;;;;;;;-6.08;100.00;102373.91;4979877;28;20042;-78
2022/12/18 07:40:23;;;;;;;34.15;14.18;;;;;;;-6.14;100.00;102365.81;4999399;28;20044;-78
2022/12/18 07:42:48;;;;;;;36.25;13.70;;;;;;;-6.18;100.00;102361.31;4999435;28;20073;-78
2022/12/18 07:45:13;;;;;;;34.28;14.70;;;;;;;-6.17;100.00;102357.78;4995223;28;20045;-77
2022/12/18 07:47:41;;;;;;;32.63;14.35;;;;;;;-6.17;100.00;102355.09;4980398;28;20043;-78
2022/12/18 07:50:06;;;;;;;34.92;13.80;;;;;;;-6.17;100.00;102340.00;4997945;28;20045;-78
2022/12/18 07:52:32;;;;;;;43.72;15.45;;;;;;;-6.01;100.00;102353.56;4998552;28;20038;-80
2022/12/18 07:54:57;;;;;;;28.48;13.80;;;;;;;-6.02;100.00;102357.97;4996164;28;20493;-77
2022/12/18 07:57:23;;;;;;;39.08;15.57;;;;;;;-5.98;100.00;102351.81;4993737;28;20050;-78
2022/12/18 07:59:48;;;;;;;36.53;14.70;;;;;;;-5.96;100.00;102346.50;4989576;28;20389;-77
2022/12/18 08:02:14;;;;;;;31.98;14.48;;;;;;;-5.94;100.00;102328.72;5010295;28;20034;-77
2022/12/18 08:04:39;;;;;;;42.22;16.85;;;;;;;-5.85;100.00;102331.53;4992910;28;20054;-77
2022/12/18 08:07:05;;;;;;;31.00;14.00;;;;;;;-5.82;100.00;102326.22;4992314;28;20070;-77
2022/12/18 08:09:31;;;;;;;35.47;16.65;;;;;;;-5.79;100.00;102320.03;4976032;28;20038;-77
2022/12/18 08:11:56;;;;;;;42.35;14.77;;;;;;;-5.83;100.00;102304.88;5009610;28;20061;-77
2022/12/18 08:14:22;;;;;;;42.20;15.85;;;;;;;-5.63;100.00;102316.66;4993746;28;20048;-77
2022/12/18 08:16:48;;;;;;;40.67;16.00;;;;;;;-5.57;100.00;102316.72;4977742;28;20126;-77
2022/12/18 08:19:13;;;;;;;36.80;15.07;;;;;;;-5.40;100.00;102324.03;4992832;28;20038;-78
2022/12/18 08:21:38;;;;;;;34.80;14.50;;;;;;;-5.38;100.00;102327.59;4996162;28;20054;-77
2022/12/18 08:24:04;;;;;;;36.65;16.02;;;;;;;-5.31;100.00;102320.53;4994758;28;20045;-77
2022/12/18 08:26:30;;;;;;;35.65;15.20;;;;;;;-5.30;100.00;102314.34;4994650;28;20031;-77
2022/12/18 08:28:59;;;;;;;35.50;15.52;;;;;;;-5.25;100.00;102333.97;4994718;28;20041;-77
2022/12/18 08:31:26;;;;;;;34.92;15.90;;;;;;;-5.17;100.00;102335.81;4995799;28;20038;-77
2022/12/18 08:33:52;;;;;;;39.90;14.75;;;;;;;-5.04;100.00;102331.50;4985472;28;20030;-77
2022/12/18 08:36:19;;;;;;;37.97;16.85;;;;;;;-5.03;100.00;102335.97;4989112;28;20101;-78
2022/12/18 08:38:45;;;;;;;34.15;14.30;;;;;;;-4.96;100.00;102336.91;4986696;28;20048;-78
2022/12/18 08:41:13;;;;;;;35.33;15.75;;;;;;;-4.97;100.00;102335.13;4987148;28;20030;-77
2022/12/18 08:46:25;;;;;;;45.65;16.20;;;;;;;-4.88;100.00;102345.00;4990503;28;20050;-77
2022/12/18 08:48:53;;;;;;;37.60;15.80;;;;;;;-4.85;100.00;102339.69;4992956;28;20030;-78
2022/12/18 08:51:19;;;;;;;33.92;14.75;;;;;;;-4.86;100.00;102327.22;4995601;28;20151;-78
2022/12/18 08:53:45;;;;;;;41.78;16.25;;;;;;;-4.80;100.00;102325.47;4988939;28;20039;-78
2022/12/18 08:56:12;;;;;;;43.05;15.88;;;;;;;-4.69;100.00;102313.97;4994907;28;20035;-77
2022/12/18 08:58:37;;;;;;;35.45;15.73;;;;;;;-4.76;100.00;102312.16;4988872;28;20022;-78
2022/12/18 09:01:05;;;;;;;41.97;17.63;;;;;;;-4.66;100.00;102297.97;4978370;28;20049;-77
2022/12/18 09:03:30;;;;;;;30.30;14.13;;;;;;;-4.63;100.00;102303.34;4992303;28;20038;-77
2022/12/18 09:05:56;;;;;;;36.33;16.15;;;;;;;-4.52;100.00;102292.75;4989607;28;20505;-78
2022/12/18 09:08:21;;;;;;;41.75;15.98;;;;;;;-4.52;100.00;102290.06;4993670;28;20037;-78
2022/12/18 09:10:49;;;;;;;42.97;16.42;;;;;;;-4.36;100.00;102291.94;4995921;28;20066;-78
2022/12/18 09:13:15;;;;;;;35.10;14.57;;;;;;;-4.33;100.00;102289.31;4991337;28;20034;-79
2022/12/18 09:15:46;;;;;;;32.22;16.13;;;;;;;-4.28;100.00;102290.22;4991975;28;20038;-77
2022/12/18 09:18:13;;;;;;;34.15;16.17;;;;;;;-4.17;100.00;102289.38;4996932;28;20034;-77
2022/12/18 09:20:39;;;;;;;30.40;14.32;;;;;;;-4.14;100.00;102302.75;5002630;28;20027;-77
2022/12/18 09:23:06;;;;;;;39.03;14.75;;;;;;;-4.03;100.00;102303.72;4974038;28;20064;-77
2022/12/18 09:25:33;;;;;;;34.10;15.35;;;;;;;-3.94;100.00;102303.72;4991267;28;20560;-77
2022/12/18 09:28:03;;;;;;;34.88;15.07;;;;;;;-3.91;100.00;102297.50;4993167;28;20030;-79
2022/12/18 09:30:28;;;;;;;38.53;16.00;;;;;;;-3.88;100.00;102287.72;4976621;28;20125;-77
2022/12/18 09:32:54;;;;;;;33.70;14.77;;;;;;;-3.83;100.00;102294.88;4992689;28;20041;-78
2022/12/18 09:35:23;;;;;;;40.65;15.95;;;;;;;-3.76;100.00;102291.31;4977723;28;20508;-78
2022/12/18 09:37:48;;;;;;;35.08;14.48;;;;;;;-3.67;100.00;102323.47;4987353;28;20047;-77
2022/12/18 09:40:16;;;;;;;32.50;14.13;;;;;;;-3.67;100.00;102319.88;4964572;28;20054;-77
2022/12/18 09:42:47;;;;;;;38.58;14.63;;;;;;;-3.55;100.00;102318.16;4995953;28;20026;-78
2022/12/18 09:45:14;;;;;;;39.28;15.45;;;;;;;-3.56;100.00;102323.50;4995377;28;20482;-77
2022/12/18 09:47:42;;;;;;;31.45;14.60;;;;;;;-3.53;100.00;102323.50;4989588;28;20041;-77
2022/12/18 09:50:29;;;;;;;33.70;15.30;;;;;;;-3.49;100.00;102319.97;4994018;28;20081;-78
2022/12/18 09:52:59;;;;;;;38.05;14.13;;;;;;;-3.43;100.00;102311.06;4988500;28;20176;-78
2022/12/18 09:55:38;;;;;;;38.67;15.98;;;;;;;-3.30;100.00;102314.66;4978007;28;20026;-77
2022/12/18 09:58:34;;;;;;;30.45;13.95;;;;;;;-3.33;100.00;102300.38;4994133;28;20080;-77
2022/12/18 10:01:00;;;;;;;39.85;14.82;;;;;;;-3.19;100.00;102278.06;4992293;28;20042;-78
2022/12/18 10:03:26;;;;;;;32.83;13.68;;;;;;;-3.19;100.00;102278.06;4989596;28;20434;-77
2022/12/18 10:06:13;;;;;;;28.35;14.30;;;;;;;-3.10;100.00;102282.53;4997033;28;20099;-78
2022/12/18 10:09:00;;;;;;;37.13;15.38;;;;;;;-3.09;100.00;102278.97;4996737;28;20109;-78
2022/12/18 10:12:03;;;;;;;35.22;14.02;;;;;;;-2.86;100.00;102287.91;4995759;28;20097;-78
2022/12/18 10:14:46;;;;;;;33.50;14.53;;;;;;;-2.79;100.00;102278.97;4987253;28;20449;-77
2022/12/18 10:17:35;;;;;;;38.03;15.85;;;;;;;-2.67;100.00;102272.72;4971227;28;20302;-77
2022/12/18 10:20:20;;;;;;;29.55;13.35;;;;;;;-2.80;100.00;102277.19;4971827;28;20160;-77
2022/12/18 10:23:13;;;;;;;32.97;13.75;;;;;;;-2.73;100.00;102290.59;4984567;28;20470;-77
2022/12/18 10:25:54;;;;;;;33.65;14.50;;;;;;;-2.81;100.00;102285.22;4989414;28;20124;-79
2022/12/18 10:28:20;;;;;;;28.95;13.25;;;;;;;-2.77;100.00;102287.91;4988785;28;20034;-77
2022/12/18 10:30:46;;;;;;;31.20;15.15;;;;;;;-2.72;100.00;102273.59;4987225;28;20481;-77
2022/12/18 10:33:16;;;;;;;36.15;15.25;;;;;;;-2.66;100.00;102270.91;4989686;28;20049;-78
2022/12/18 10:35:42;;;;;;;26.50;12.48;;;;;;;-2.61;100.00;102263.75;4996869;28;20425;-78
2022/12/18 10:38:22;;;;;;;30.73;12.90;;;;;;;-2.56;100.00;102261.94;4992633;28;20145;-77
2022/12/18 10:40:48;;;;;;;31.33;13.30;;;;;;;-2.49;100.00;102266.41;4991093;28;20045;-77
2022/12/18 10:43:15;;;;;;;31.45;14.25;;;;;;;-2.55;100.00;102257.50;4998581;28;20120;-77
2022/12/18 10:45:41;;;;;;;33.28;14.57;;;;;;;-2.46;100.00;102252.09;5006664;28;20064;-78
2022/12/18 10:48:23;;;;;;;29.98;13.93;;;;;;;-2.46;100.00;102239.59;5003078;28;20045;-78
2022/12/18 10:50:51;;;;;;;31.20;14.05;;;;;;;-2.26;100.00;102241.34;4992877;28;20532;-78
2022/12/18 10:53:29;;;;;;;30.52;13.50;;;;;;;-2.31;100.00;102235.97;4984259;28;20563;-78
2022/12/18 10:56:00;;;;;;;32.28;14.38;;;;;;;-2.28;100.00;102227.00;4991300;28;20041;-77
2022/12/18 10:58:33;;;;;;;25.58;12.88;;;;;;;-2.12;100.00;102230.53;5000018;28;20030;-78
2022/12/18 11:01:09;;;;;;;32.08;14.45;;;;;;;-2.08;100.00;102222.47;5005748;28;20073;-78
2022/12/18 11:03:39;;;;;;;34.40;13.50;;;;;;;-2.12;100.00;102220.69;4988157;28;20022;-78
2022/12/18 11:06:15;;;;;;;33.53;13.75;;;;;;;-2.12;100.00;102225.16;4987709;28;20064;-78
2022/12/18 11:08:43;;;;;;;32.20;11.80;;;;;;;-2.03;100.00;102203.69;4993971;28;20026;-78
2022/12/18 11:11:22;;;;;;;31.55;13.70;;;;;;;-2.05;100.00;102195.63;4991913;28;20039;-79
2022/12/18 11:14:05;;;;;;;39.55;15.35;;;;;;;-2.09;100.00;102195.66;4997032;28;20133;-78
2022/12/18 11:16:42;;;;;;;32.95;14.20;;;;;;;-2.08;100.00;102197.44;4997950;28;20030;-78
2022/12/18 11:19:33;;;;;;;31.83;13.35;;;;;;;-2.06;100.00;102193.84;4995436;28;21276;-78